sensor_id;sensor_type;location;lat;lon;timestamp;pressure;altitude;pressure_sealevel;temperature;humidity
6853;BME280;3465;42.144;24.722;2023-01-28T00:00:53;143909.31;;;3.94;100.00
6853;BME280;3465;42.144;24.722;2023-01-28T00:03:19;143915.56;;;3.96;100.00
6853;BME280;3465;42.144;24.722;2023-01-28T00:05:44;143923.03;;;3.99;100.00
6853;BME280;3465;42.144;24.722;2023-01-28T00:08:09;143908.09;;;3.93;100.00
6853;BME280;3465;42.144;24.722;2023-01-28T00:10:36;143895.66;;;3.88;100.00
6853;BME280;3465;42.144;24.722;2023-01-28T00:13:05;143914.31;;;3.96;100.00
6853;BME280;3465;42.144;24.722;2023-01-28T00:15:30;143889.41;;;3.86;100.00
6853;BME280;3465;42.144;24.722;2023-01-28T00:17:55;143909.31;;;3.94;100.00
6853;BME280;3465;42.144;24.722;2023-01-28T00:20:21;143889.41;;;3.86;100.00
6853;BME280;3465;42.144;24.722;2023-01-28T00:22:47;143888.19;;;3.85;100.00
6853;BME280;3465;42.144;24.722;2023-01-28T00:25:13;143903.13;;;3.91;100.00
6853;BME280;3465;42.144;24.722;2023-01-28T00:27:39;143876.97;;;3.81;100.00
6853;BME280;3465;42.144;24.722;2023-01-28T00:30:04;143901.84;;;3.91;100.00
6853;BME280;3465;42.144;24.722;2023-01-28T00:32:31;143880.69;;;3.82;100.00
6853;BME280;3465;42.144;24.722;2023-01-28T00:34:56;143898.13;;;3.89;100.00
6853;BME280;3465;42.144;24.722;2023-01-28T00:37:22;143890.66;;;3.86;100.00
6853;BME280;3465;42.144;24.722;2023-01-28T00:39:48;143893.13;;;3.87;100.00
6853;BME280;3465;42.144;24.722;2023-01-28T00:42:14;143896.88;;;3.89;100.00
6853;BME280;3465;42.144;24.722;2023-01-28T00:44:40;143893.13;;;3.87;100.00
6853;BME280;3465;42.144;24.722;2023-01-28T00:47:06;143886.94;;;3.85;100.00
6853;BME280;3465;42.144;24.722;2023-01-28T00:49:31;143889.41;;;3.86;100.00
6853;BME280;3465;42.144;24.722;2023-01-28T00:51:57;143900.59;;;3.90;100.00
6853;BME280;3465;42.144;24.722;2023-01-28T00:54:22;143886.94;;;3.85;100.00
6853;BME280;3465;42.144;24.722;2023-01-28T00:56:47;143860.78;;;3.74;100.00
6853;BME280;3465;42.144;24.722;2023-01-28T00:59:13;143853.31;;;3.71;100.00
6853;BME280;3465;42.144;24.722;2023-01-28T01:01:38;143894.41;;;3.88;100.00
6853;BME280;3465;42.144;24.722;2023-01-28T01:04:04;143888.19;;;3.85;100.00
6853;BME280;3465;42.144;24.722;2023-01-28T01:06:35;143872.00;;;3.79;100.00
6853;BME280;3465;42.144;24.722;2023-01-28T01:09:03;143884.41;;;3.84;100.00
6853;BME280;3465;42.144;24.722;2023-01-28T01:11:29;143870.75;;;3.78;100.00
6853;BME280;3465;42.144;24.722;2023-01-28T01:13:57;143884.41;;;3.84;100.00
6853;BME280;3465;42.144;24.722;2023-01-28T01:16:25;143890.66;;;3.86;100.00
6853;BME280;3465;42.144;24.722;2023-01-28T01:18:52;143839.66;;;3.66;100.00
6853;BME280;3465;42.144;24.722;2023-01-28T01:21:19;143881.94;;;3.83;100.00
6853;BME280;3465;42.144;24.722;2023-01-28T01:23:46;143872.00;;;3.79;100.00
6853;BME280;3465;42.144;24.722;2023-01-28T01:26:12;143858.31;;;3.73;100.00
6853;BME280;3465;42.144;24.722;2023-01-28T01:28:38;143885.69;;;3.84;100.00
6853;BME280;3465;42.144;24.722;2023-01-28T01:31:06;143874.47;;;3.80;100.00
6853;BME280;3465;42.144;24.722;2023-01-28T01:33:32;143862.03;;;3.75;100.00
6853;BME280;3465;42.144;24.722;2023-01-28T01:35:58;143879.47;;;3.82;100.00
6853;BME280;3465;42.144;24.722;2023-01-28T01:38:25;143874.47;;;3.80;100.00
6853;BME280;3465;42.144;24.722;2023-01-28T01:40:50;143870.75;;;3.78;100.00
6853;BME280;3465;42.144;24.722;2023-01-28T01:43:20;143876.97;;;3.81;100.00
6853;BME280;3465;42.144;24.722;2023-01-28T01:45:51;143876.97;;;3.81;100.00
6853;BME280;3465;42.144;24.722;2023-01-28T01:48:27;143863.28;;;3.75;100.00
6853;BME280;3465;42.144;24.722;2023-01-28T01:51:01;143870.75;;;3.78;100.00
6853;BME280;3465;42.144;24.722;2023-01-28T01:53:29;143865.75;;;3.76;100.00
6853;BME280;3465;42.144;24.722;2023-01-28T01:55:58;143848.38;;;3.69;100.00
6853;BME280;3465;42.144;24.722;2023-01-28T01:58:30;143867.03;;;3.77;100.00
6853;BME280;3465;42.144;24.722;2023-01-28T02:00:58;143847.13;;;3.69;100.00
6853;BME280;3465;42.144;24.722;2023-01-28T02:06:07;143873.22;;;3.79;100.00
6853;BME280;3465;42.144;24.722;2023-01-28T02:08:33;143860.78;;;3.74;100.00
6853;BME280;3465;42.144;24.722;2023-01-28T02:11:04;143870.75;;;3.78;100.00
6853;BME280;3465;42.144;24.722;2023-01-28T02:13:40;143886.94;;;3.85;100.00
6853;BME280;3465;42.144;24.722;2023-01-28T02:16:07;143880.69;;;3.82;100.00
6853;BME280;3465;42.144;24.722;2023-01-28T02:18:33;143886.94;;;3.85;100.00
6853;BME280;3465;42.144;24.722;2023-01-28T02:34:35;143842.13;;;3.67;100.00
6853;BME280;3465;42.144;24.722;2023-01-28T02:37:16;143875.75;;;3.80;100.00
6853;BME280;3465;42.144;24.722;2023-01-28T02:39:48;143890.66;;;3.86;100.00
6853;BME280;3465;42.144;24.722;2023-01-28T02:42:20;143883.22;;;3.83;100.00
6853;BME280;3465;42.144;24.722;2023-01-28T02:44:47;143896.88;;;3.89;100.00
6853;BME280;3465;42.144;24.722;2023-01-28T02:47:14;143843.38;;;3.67;100.00
6853;BME280;3465;42.144;24.722;2023-01-28T02:50:02;143875.75;;;3.80;100.00
6853;BME280;3465;42.144;24.722;2023-01-28T02:52:55;143865.75;;;3.76;100.00
6853;BME280;3465;42.144;24.722;2023-01-28T03:06:09;143872.00;;;3.79;100.00
6853;BME280;3465;42.144;24.722;2023-01-28T03:08:46;143867.03;;;3.77;100.00
6853;BME280;3465;42.144;24.722;2023-01-28T03:11:35;143865.75;;;3.76;100.00
6853;BME280;3465;42.144;24.722;2023-01-28T03:14:21;143838.41;;;3.65;100.00
6853;BME280;3465;42.144;24.722;2023-01-28T03:17:11;143857.03;;;3.73;100.00
6853;BME280;3465;42.144;24.722;2023-01-28T03:19:58;143837.13;;;3.65;100.00
6853;BME280;3465;42.144;24.722;2023-01-28T03:22:45;143834.66;;;3.64;100.00
6853;BME280;3465;42.144;24.722;2023-01-28T03:25:33;143840.88;;;3.66;100.00
6853;BME280;3465;42.144;24.722;2023-01-28T03:28:19;143863.28;;;3.75;100.00
6853;BME280;3465;42.144;24.722;2023-01-28T03:31:12;143876.97;;;3.81;100.00
6853;BME280;3465;42.144;24.722;2023-01-28T03:33:59;143867.03;;;3.77;100.00
6853;BME280;3465;42.144;24.722;2023-01-28T03:36:44;143870.75;;;3.78;100.00
6853;BME280;3465;42.144;24.722;2023-01-28T03:39:21;143855.84;;;3.72;100.00
6853;BME280;3465;42.144;24.722;2023-01-28T03:42:08;143848.38;;;3.69;100.00
6853;BME280;3465;42.144;24.722;2023-01-28T03:44:35;143809.75;;;3.54;100.00
6853;BME280;3465;42.144;24.722;2023-01-28T03:47:24;143849.59;;;3.70;100.00
6853;BME280;3465;42.144;24.722;2023-01-28T03:49:51;143808.56;;;3.53;100.00
6853;BME280;3465;42.144;24.722;2023-01-28T03:52:36;143820.94;;;3.58;100.00
6853;BME280;3465;42.144;24.722;2023-01-28T03:55:02;143796.09;;;3.48;100.00
6853;BME280;3465;42.144;24.722;2023-01-28T03:57:37;143798.56;;;3.49;100.00
6853;BME280;3465;42.144;24.722;2023-01-28T04:00:02;143814.75;;;3.56;100.00
6853;BME280;3465;42.144;24.722;2023-01-28T04:02:28;143809.75;;;3.54;100.00
6853;BME280;3465;42.144;24.722;2023-01-28T04:04:53;143811.03;;;3.54;100.00
6853;BME280;3465;42.144;24.722;2023-01-28T04:07:18;143767.47;;;3.37;100.00
6853;BME280;3465;42.144;24.722;2023-01-28T04:09:44;143801.03;;;3.50;100.00
6853;BME280;3465;42.144;24.722;2023-01-28T04:12:10;143801.03;;;3.50;100.00
6853;BME280;3465;42.144;24.722;2023-01-28T04:14:35;143782.41;;;3.43;100.00
6853;BME280;3465;42.144;24.722;2023-01-28T04:17:01;143762.50;;;3.35;100.00
6853;BME280;3465;42.144;24.722;2023-01-28T04:19:27;143769.94;;;3.38;100.00
6853;BME280;3465;42.144;24.722;2023-01-28T04:21:52;143766.22;;;3.36;100.00
6853;BME280;3465;42.144;24.722;2023-01-28T04:24:19;143760.03;;;3.34;100.00
6853;BME280;3465;42.144;24.722;2023-01-28T04:26:44;143773.69;;;3.39;100.00
6853;BME280;3465;42.144;24.722;2023-01-28T04:29:10;143728.94;;;3.21;100.00
6853;BME280;3465;42.144;24.722;2023-01-28T04:31:35;143764.97;;;3.36;100.00
6853;BME280;3465;42.144;24.722;2023-01-28T04:34:00;143745.06;;;3.28;100.00
6853;BME280;3465;42.144;24.722;2023-01-28T04:36:26;143766.22;;;3.36;100.00
6853;BME280;3465;42.144;24.722;2023-01-28T04:38:52;143761.22;;;3.34;100.00
6853;BME280;3465;42.144;24.722;2023-01-28T04:41:17;143768.75;;;3.37;100.00
6853;BME280;3465;42.144;24.722;2023-01-28T04:43:43;143761.22;;;3.34;100.00
6853;BME280;3465;42.144;24.722;2023-01-28T04:46:08;143728.94;;;3.21;100.00
6853;BME280;3465;42.144;24.722;2023-01-28T04:48:34;143758.75;;;3.33;100.00
6853;BME280;3465;42.144;24.722;2023-01-28T04:51:03;143598.31;;;2.68;100.00
6853;BME280;3465;42.144;24.722;2023-01-28T04:53:29;143727.69;;;3.21;100.00
6853;BME280;3465;42.144;24.722;2023-01-28T04:55:55;143737.59;;;3.25;100.00
6853;BME280;3465;42.144;24.722;2023-01-28T04:58:21;143689.13;;;3.05;100.00
6853;BME280;3465;42.144;24.722;2023-01-28T05:00:52;143718.97;;;3.17;100.00
6853;BME280;3465;42.144;24.722;2023-01-28T05:03:18;143723.94;;;3.19;100.00
6853;BME280;3465;42.144;24.722;2023-01-28T05:05:43;143709.03;;;3.13;100.00
6853;BME280;3465;42.144;24.722;2023-01-28T05:08:08;143723.94;;;3.19;100.00
6853;BME280;3465;42.144;24.722;2023-01-28T05:10:34;143728.94;;;3.21;100.00
6853;BME280;3465;42.144;24.722;2023-01-28T05:12:59;143738.84;;;3.25;100.00
6853;BME280;3465;42.144;24.722;2023-01-28T05:15:25;143740.13;;;3.26;100.00
6853;BME280;3465;42.144;24.722;2023-01-28T05:17:53;143735.13;;;3.24;100.00
6853;BME280;3465;42.144;24.722;2023-01-28T05:20:19;143733.88;;;3.23;100.00
6853;BME280;3465;42.144;24.722;2023-01-28T05:22:44;143750.03;;;3.30;100.00
6853;BME280;3465;42.144;24.722;2023-01-28T05:25:10;143740.13;;;3.26;100.00
6853;BME280;3465;42.144;24.722;2023-01-28T05:27:35;143741.34;;;3.26;100.00
6853;BME280;3465;42.144;24.722;2023-01-28T05:30:00;143746.31;;;3.28;100.00
6853;BME280;3465;42.144;24.722;2023-01-28T05:32:26;143756.28;;;3.32;100.00
6853;BME280;3465;42.144;24.722;2023-01-28T05:34:51;143757.50;;;3.33;100.00
6853;BME280;3465;42.144;24.722;2023-01-28T05:37:17;143767.47;;;3.37;100.00
6853;BME280;3465;42.144;24.722;2023-01-28T05:39:42;143783.66;;;3.43;100.00
6853;BME280;3465;42.144;24.722;2023-01-28T05:42:07;143776.19;;;3.40;100.00
6853;BME280;3465;42.144;24.722;2023-01-28T05:44:33;143784.88;;;3.44;100.00
6853;BME280;3465;42.144;24.722;2023-01-28T05:46:58;143792.38;;;3.47;100.00
6853;BME280;3465;42.144;24.722;2023-01-28T05:49:24;143786.13;;;3.44;100.00
6853;BME280;3465;42.144;24.722;2023-01-28T05:51:51;143786.13;;;3.44;100.00
6853;BME280;3465;42.144;24.722;2023-01-28T05:54:16;143791.13;;;3.46;100.00
6853;BME280;3465;42.144;24.722;2023-01-28T05:56:42;143786.13;;;3.44;100.00
6853;BME280;3465;42.144;24.722;2023-01-28T05:59:10;143788.66;;;3.45;100.00
6853;BME280;3465;42.144;24.722;2023-01-28T06:01:35;143808.56;;;3.53;100.00
6853;BME280;3465;42.144;24.722;2023-01-28T06:04:00;143796.09;;;3.48;100.00
6853;BME280;3465;42.144;24.722;2023-01-28T06:06:26;143781.13;;;3.42;100.00
6853;BME280;3465;42.144;24.722;2023-01-28T06:08:51;143799.84;;;3.50;100.00
6853;BME280;3465;42.144;24.722;2023-01-28T06:11:16;143799.84;;;3.50;100.00
6853;BME280;3465;42.144;24.722;2023-01-28T06:13:42;143793.59;;;3.47;100.00
6853;BME280;3465;42.144;24.722;2023-01-28T06:16:07;143791.13;;;3.46;100.00
6853;BME280;3465;42.144;24.722;2023-01-28T06:18:33;143834.66;;;3.64;100.00
6853;BME280;3465;42.144;24.722;2023-01-28T06:20:59;143816.00;;;3.56;100.00
6853;BME280;3465;42.144;24.722;2023-01-28T06:23:24;143819.75;;;3.58;100.00
6853;BME280;3465;42.144;24.722;2023-01-28T06:25:56;143813.50;;;3.55;100.00
6853;BME280;3465;42.144;24.722;2023-01-28T06:28:22;143808.56;;;3.53;100.00
6853;BME280;3465;42.144;24.722;2023-01-28T06:30:49;143820.94;;;3.58;100.00
6853;BME280;3465;42.144;24.722;2023-01-28T06:33:14;143833.41;;;3.63;100.00
6853;BME280;3465;42.144;24.722;2023-01-28T06:35:40;143839.66;;;3.66;100.00
6853;BME280;3465;42.144;24.722;2023-01-28T06:38:05;143853.31;;;3.71;100.00
6853;BME280;3465;42.144;24.722;2023-01-28T06:40:30;143873.22;;;3.79;100.00
6853;BME280;3465;42.144;24.722;2023-01-28T06:42:56;143876.97;;;3.81;100.00
6853;BME280;3465;42.144;24.722;2023-01-28T06:45:21;143875.75;;;3.80;100.00
6853;BME280;3465;42.144;24.722;2023-01-28T06:47:46;143879.47;;;3.82;100.00
6853;BME280;3465;42.144;24.722;2023-01-28T06:50:12;143880.69;;;3.82;100.00
6853;BME280;3465;42.144;24.722;2023-01-28T06:52:38;143898.13;;;3.89;100.00
6853;BME280;3465;42.144;24.722;2023-01-28T06:55:04;143905.59;;;3.92;100.00
6853;BME280;3465;42.144;24.722;2023-01-28T06:57:29;143908.09;;;3.93;100.00
6853;BME280;3465;42.144;24.722;2023-01-28T06:59:55;143921.78;;;3.99;100.00
6853;BME280;3465;42.144;24.722;2023-01-28T07:02:20;143937.97;;;4.05;100.00
6853;BME280;3465;42.144;24.722;2023-01-28T07:04:45;143955.41;;;4.12;100.00
6853;BME280;3465;42.144;24.722;2023-01-28T07:07:11;143957.88;;;4.13;100.00
6853;BME280;3465;42.144;24.722;2023-01-28T07:09:36;143994.00;;;4.28;100.00
6853;BME280;3465;42.144;24.722;2023-01-28T07:12:01;143990.25;;;4.26;100.00
6853;BME280;3465;42.144;24.722;2023-01-28T07:14:30;144007.72;;;4.33;100.00
6853;BME280;3465;42.144;24.722;2023-01-28T07:16:55;144020.13;;;4.38;100.00
6853;BME280;3465;42.144;24.722;2023-01-28T07:19:20;144050.03;;;4.51;100.00
6853;BME280;3465;42.144;24.722;2023-01-28T07:21:46;144071.22;;;4.59;100.00
6853;BME280;3465;42.144;24.722;2023-01-28T07:24:11;144082.41;;;4.64;100.00
6853;BME280;3465;42.144;24.722;2023-01-28T07:26:36;144097.34;;;4.70;100.00
6853;BME280;3465;42.144;24.722;2023-01-28T07:29:02;144102.34;;;4.72;100.00
6853;BME280;3465;42.144;24.722;2023-01-28T07:31:27;144140.94;;;4.87;100.00
6853;BME280;3465;42.144;24.722;2023-01-28T07:33:52;144174.63;;;5.01;100.00
6853;BME280;3465;42.144;24.722;2023-01-28T07:36:18;144202.03;;;5.12;100.00
6853;BME280;3465;42.144;24.722;2023-01-28T07:38:43;144203.22;;;5.12;100.00
6853;BME280;3465;42.144;24.722;2023-01-28T07:41:09;144234.41;;;5.25;100.00
6853;BME280;3465;42.144;24.722;2023-01-28T07:43:34;144250.63;;;5.31;100.00
6853;BME280;3465;42.144;24.722;2023-01-28T07:46:00;144276.78;;;5.42;100.00
6853;BME280;3465;42.144;24.722;2023-01-28T07:48:26;144311.69;;;5.56;100.00
6853;BME280;3465;42.144;24.722;2023-01-28T07:50:52;144379.03;;;5.83;100.00
6853;BME280;3465;42.144;24.722;2023-01-28T07:53:18;144428.94;;;6.03;100.00
6853;BME280;3465;42.144;24.722;2023-01-28T07:55:44;144446.44;;;6.10;100.00
6853;BME280;3465;42.144;24.722;2023-01-28T07:58:10;144516.25;;;6.38;100.00
6853;BME280;3465;42.144;24.722;2023-01-28T08:00:36;144571.16;;;6.60;100.00
6853;BME280;3465;42.144;24.722;2023-01-28T08:03:05;144556.19;;;6.54;100.00
6853;BME280;3465;42.144;24.722;2023-01-28T08:05:37;144607.34;;;6.75;100.00
6853;BME280;3465;42.144;24.722;2023-01-28T08:08:06;144671.00;;;7.00;100.00
6853;BME280;3465;42.144;24.722;2023-01-28T08:10:31;144663.50;;;6.97;100.00
6853;BME280;3465;42.144;24.722;2023-01-28T08:12:57;144705.97;;;7.14;100.00
6853;BME280;3465;42.144;24.722;2023-01-28T08:15:23;144719.69;;;7.20;100.00
6853;BME280;3465;42.144;24.722;2023-01-28T08:17:49;144738.41;;;7.27;100.00
6853;BME280;3465;42.144;24.722;2023-01-28T08:20:15;144749.69;;;7.32;100.00
6853;BME280;3465;42.144;24.722;2023-01-28T08:22:40;144764.66;;;7.38;100.00
6853;BME280;3465;42.144;24.722;2023-01-28T08:25:06;144772.13;;;7.41;99.22
6853;BME280;3465;42.144;24.722;2023-01-28T08:27:31;144764.66;;;7.38;96.76
6853;BME280;3465;42.144;24.722;2023-01-28T08:29:57;144745.94;;;7.31;97.14
6853;BME280;3465;42.144;24.722;2023-01-28T08:32:22;144695.97;;;7.10;95.72
6853;BME280;3465;42.144;24.722;2023-01-28T08:34:47;144658.50;;;6.95;96.58
6853;BME280;3465;42.144;24.722;2023-01-28T08:37:13;144643.53;;;6.89;98.38
6853;BME280;3465;42.144;24.722;2023-01-28T08:39:38;144633.56;;;6.85;100.00
6853;BME280;3465;42.144;24.722;2023-01-28T08:42:15;144671.00;;;7.00;98.76
6853;BME280;3465;42.144;24.722;2023-01-28T08:44:41;144737.19;;;7.27;100.00
6853;BME280;3465;42.144;24.722;2023-01-28T08:47:06;144792.13;;;7.49;98.53
6853;BME280;3465;42.144;24.722;2023-01-28T08:49:32;144853.31;;;7.74;97.52
6853;BME280;3465;42.144;24.722;2023-01-28T08:51:57;144818.31;;;7.60;94.87
6853;BME280;3465;42.144;24.722;2023-01-28T08:54:22;144795.84;;;7.51;95.64
6853;BME280;3465;42.144;24.722;2023-01-28T08:56:48;144775.88;;;7.43;94.19
6853;BME280;3465;42.144;24.722;2023-01-28T08:59:14;144744.66;;;7.30;96.09
6853;BME280;3465;42.144;24.722;2023-01-28T09:01:40;144707.19;;;7.15;96.04
6853;BME280;3465;42.144;24.722;2023-01-28T09:04:05;144768.38;;;7.40;94.93
6853;BME280;3465;42.144;24.722;2023-01-28T09:06:31;144798.34;;;7.52;96.00
6853;BME280;3465;42.144;24.722;2023-01-28T09:08:58;144744.66;;;7.30;94.45
6853;BME280;3465;42.144;24.722;2023-01-28T09:11:23;144730.91;;;7.24;96.01
6853;BME280;3465;42.144;24.722;2023-01-28T09:13:49;144794.59;;;7.50;95.75
6853;BME280;3465;42.144;24.722;2023-01-28T09:16:14;144788.38;;;7.48;92.49
6853;BME280;3465;42.144;24.722;2023-01-28T09:18:40;144758.38;;;7.36;92.81
6853;BME280;3465;42.144;24.722;2023-01-28T09:21:06;144708.47;;;7.15;93.01
6853;BME280;3465;42.144;24.722;2023-01-28T09:23:35;144668.50;;;6.99;93.18
6853;BME280;3465;42.144;24.722;2023-01-28T09:26:02;144686.00;;;7.06;93.59
6853;BME280;3465;42.144;24.722;2023-01-28T09:28:28;144648.53;;;6.91;94.58
6853;BME280;3465;42.144;24.722;2023-01-28T09:31:00;144637.31;;;6.87;94.47
6853;BME280;3465;42.144;24.722;2023-01-28T09:33:26;144611.06;;;6.76;93.21
6853;BME280;3465;42.144;24.722;2023-01-28T09:35:51;144646.06;;;6.90;94.26
6853;BME280;3465;42.144;24.722;2023-01-28T09:38:16;144642.28;;;6.89;92.49
6853;BME280;3465;42.144;24.722;2023-01-28T09:40:42;144662.25;;;6.97;92.73
6853;BME280;3465;42.144;24.722;2023-01-28T09:45:56;144720.94;;;7.20;91.76
6853;BME280;3465;42.144;24.722;2023-01-28T09:48:27;144780.88;;;7.45;91.87
6853;BME280;3465;42.144;24.722;2023-01-28T09:50:57;144845.84;;;7.71;90.81
6853;BME280;3465;42.144;24.722;2023-01-28T09:53:31;144883.28;;;7.86;89.56
6853;BME280;3465;42.144;24.722;2023-01-28T09:56:13;144922.00;;;8.01;88.42
6853;BME280;3465;42.144;24.722;2023-01-28T09:58:42;144924.53;;;8.02;88.52
6853;BME280;3465;42.144;24.722;2023-01-28T10:09:47;145180.84;;;9.05;86.27
6853;BME280;3465;42.144;24.722;2023-01-28T10:15:23;145153.31;;;8.94;84.79
6853;BME280;3465;42.144;24.722;2023-01-28T10:17:54;145133.31;;;8.86;85.60
6853;BME280;3465;42.144;24.722;2023-01-28T10:20:33;145169.59;;;9.01;86.53
6853;BME280;3465;42.144;24.722;2023-01-28T10:23:25;145110.78;;;8.77;85.08
6853;BME280;3465;42.144;24.722;2023-01-28T10:25:58;145112.06;;;8.78;85.93
6853;BME280;3465;42.144;24.722;2023-01-28T10:28:29;145095.78;;;8.71;86.79
6853;BME280;3465;42.144;24.722;2023-01-28T10:30:55;145050.78;;;8.53;86.86
6853;BME280;3465;42.144;24.722;2023-01-28T10:35:51;145200.84;;;9.13;87.10
6853;BME280;3465;42.144;24.722;2023-01-28T10:38:22;145133.31;;;8.86;86.95
6853;BME280;3465;42.144;24.722;2023-01-28T10:40:49;145165.84;;;8.99;86.75
6853;BME280;3465;42.144;24.722;2023-01-28T10:43:24;145168.31;;;9.00;85.93
6853;BME280;3465;42.144;24.722;2023-01-28T10:51:10;145145.84;;;8.91;87.13
6853;BME280;3465;42.144;24.722;2023-01-28T10:53:41;145204.59;;;9.15;86.05
6853;BME280;3465;42.144;24.722;2023-01-28T10:56:15;145268.38;;;9.40;85.59
6853;BME280;3465;42.144;24.722;2023-01-28T10:58:53;145343.44;;;9.70;85.04
6853;BME280;3465;42.144;24.722;2023-01-28T11:01:22;145323.41;;;9.62;83.59
6853;BME280;3465;42.144;24.722;2023-01-28T11:03:53;145325.94;;;9.63;82.84
6853;BME280;3465;42.144;24.722;2023-01-28T11:06:28;145303.41;;;9.54;83.77
6853;BME280;3465;42.144;24.722;2023-01-28T11:08:54;145477.44;;;10.24;83.32
6853;BME280;3465;42.144;24.722;2023-01-28T11:11:27;145513.75;;;10.39;80.25
6853;BME280;3465;42.144;24.722;2023-01-28T11:13:54;145596.38;;;10.72;80.51
6853;BME280;3465;42.144;24.722;2023-01-28T11:16:23;145528.75;;;10.45;78.50
6853;BME280;3465;42.144;24.722;2023-01-28T11:18:54;145661.53;;;10.98;79.07
6853;BME280;3465;42.144;24.722;2023-01-28T11:21:24;145672.78;;;11.02;78.67
6853;BME280;3465;42.144;24.722;2023-01-28T11:24:00;145816.91;;;11.60;75.19
6853;BME280;3465;42.144;24.722;2023-01-28T11:26:32;145862.09;;;11.78;73.99
6853;BME280;3465;42.144;24.722;2023-01-28T11:28:59;146011.31;;;12.38;72.73
6853;BME280;3465;42.144;24.722;2023-01-28T11:31:25;146036.34;;;12.48;69.66
6853;BME280;3465;42.144;24.722;2023-01-28T11:33:54;146015.06;;;12.39;70.52
6853;BME280;3465;42.144;24.722;2023-01-28T11:36:26;146158.06;;;12.96;68.11
6853;BME280;3465;42.144;24.722;2023-01-28T11:38:55;146013.81;;;12.39;68.93
6853;BME280;3465;42.144;24.722;2023-01-28T11:41:41;145889.66;;;11.89;70.10
6853;BME280;3465;42.144;24.722;2023-01-28T11:44:23;145760.50;;;11.37;71.48
6853;BME280;3465;42.144;24.722;2023-01-28T11:50:06;145431.03;;;10.05;76.75
6853;BME280;3465;42.144;24.722;2023-01-28T12:03:22;145258.34;;;9.36;81.03
6853;BME280;3465;42.144;24.722;2023-01-28T12:05:54;145235.84;;;9.27;81.36
6853;BME280;3465;42.144;24.722;2023-01-28T12:19:16;145020.81;;;8.41;87.30
6853;BME280;3465;42.144;24.722;2023-01-28T12:33:43;144818.31;;;7.60;89.99
6853;BME280;3465;42.144;24.722;2023-01-28T12:36:25;144815.84;;;7.59;90.23
6853;BME280;3465;42.144;24.722;2023-01-28T12:41:41;144867.03;;;7.79;91.33
6853;BME280;3465;42.144;24.722;2023-01-28T12:44:13;144854.53;;;7.74;91.26
6853;BME280;3465;42.144;24.722;2023-01-28T12:46:59;144815.84;;;7.59;92.08
6853;BME280;3465;42.144;24.722;2023-01-28T12:49:39;144770.88;;;7.41;95.58
6853;BME280;3465;42.144;24.722;2023-01-28T12:57:18;144686.00;;;7.06;96.65
6853;BME280;3465;42.144;24.722;2023-01-28T12:59:50;144703.44;;;7.13;97.42
6853;BME280;3465;42.144;24.722;2023-01-28T13:02:22;144745.94;;;7.31;97.87
6853;BME280;3465;42.144;24.722;2023-01-28T13:05:04;144760.91;;;7.37;97.78
6853;BME280;3465;42.144;24.722;2023-01-28T13:10:25;144762.13;;;7.37;96.46
6853;BME280;3465;42.144;24.722;2023-01-28T13:12:52;144778.34;;;7.44;95.39
6853;BME280;3465;42.144;24.722;2023-01-28T13:15:18;144760.91;;;7.37;94.99
6853;BME280;3465;42.144;24.722;2023-01-28T13:18:04;144673.50;;;7.01;96.77
6853;BME280;3465;42.144;24.722;2023-01-28T13:23:03;144735.91;;;7.26;96.60
6853;BME280;3465;42.144;24.722;2023-01-28T13:25:32;144644.78;;;6.90;96.09
6853;BME280;3465;42.144;24.722;2023-01-28T13:28:05;144627.31;;;6.83;96.99
6853;BME280;3465;42.144;24.722;2023-01-28T13:30:48;144604.84;;;6.74;97.70
6853;BME280;3465;42.144;24.722;2023-01-28T13:33:31;144603.59;;;6.73;98.04
6853;BME280;3465;42.144;24.722;2023-01-28T13:36:02;144553.69;;;6.53;97.40
6853;BME280;3465;42.144;24.722;2023-01-28T13:38:30;144515.00;;;6.38;98.68
6853;BME280;3465;42.144;24.722;2023-01-28T13:40:59;144500.03;;;6.32;99.38
6853;BME280;3465;42.144;24.722;2023-01-28T13:45:59;144510.03;;;6.36;100.00
6853;BME280;3465;42.144;24.722;2023-01-28T13:50:57;144340.34;;;5.67;100.00
6853;BME280;3465;42.144;24.722;2023-01-28T13:53:38;144421.47;;;6.00;100.00
6853;BME280;3465;42.144;24.722;2023-01-28T13:56:14;144432.69;;;6.05;100.00
6853;BME280;3465;42.144;24.722;2023-01-28T14:17:44;144401.50;;;5.92;100.00
6853;BME280;3465;42.144;24.722;2023-01-28T14:20:25;144395.25;;;5.90;100.00
6853;BME280;3465;42.144;24.722;2023-01-28T14:23:00;144400.25;;;5.92;100.00
6853;BME280;3465;42.144;24.722;2023-01-28T14:28:45;144312.94;;;5.56;100.00
6853;BME280;3465;42.144;24.722;2023-01-28T14:31:15;144314.19;;;5.57;100.00
6853;BME280;3465;42.144;24.722;2023-01-28T14:33:42;144326.66;;;5.62;100.00
6853;BME280;3465;42.144;24.722;2023-01-28T14:36:11;144301.72;;;5.52;100.00
6853;BME280;3465;42.144;24.722;2023-01-28T14:38:41;144310.47;;;5.55;100.00
6853;BME280;3465;42.144;24.722;2023-01-28T14:41:08;144305.47;;;5.53;100.00
6853;BME280;3465;42.144;24.722;2023-01-28T14:43:41;144305.47;;;5.53;100.00
6853;BME280;3465;42.144;24.722;2023-01-28T14:46:18;144294.25;;;5.49;100.00
6853;BME280;3465;42.144;24.722;2023-01-28T14:52:00;144275.53;;;5.41;100.00
6853;BME280;3465;42.144;24.722;2023-01-28T14:54:56;144296.72;;;5.50;100.00
6853;BME280;3465;42.144;24.722;2023-01-28T14:59:56;144276.78;;;5.42;100.00
6853;BME280;3465;42.144;24.722;2023-01-28T15:02:24;144288.00;;;5.46;100.00
6853;BME280;3465;42.144;24.722;2023-01-28T15:04:53;144289.25;;;5.47;100.00
6853;BME280;3465;42.144;24.722;2023-01-28T15:07:26;144289.25;;;5.47;100.00
6853;BME280;3465;42.144;24.722;2023-01-28T15:10:14;144300.47;;;5.51;100.00
6853;BME280;3465;42.144;24.722;2023-01-28T15:12:42;144211.97;;;5.16;100.00
6853;BME280;3465;42.144;24.722;2023-01-28T15:17:57;144306.72;;;5.54;100.00
6853;BME280;3465;42.144;24.722;2023-01-28T15:20:24;144291.72;;;5.48;100.00
6853;BME280;3465;42.144;24.722;2023-01-28T15:22:51;144299.19;;;5.51;100.00
6853;BME280;3465;42.144;24.722;2023-01-28T15:25:19;144300.47;;;5.51;100.00
6853;BME280;3465;42.144;24.722;2023-01-28T15:27:46;144279.25;;;5.43;100.00